sensor_id;sensor_type;location;lat;lon;timestamp;P1;durP1;ratioP1;P2;durP2;ratioP2
50745;SDS011;36711;51.972;21.204;2024-03-23T07:02:14;99.40;;;35.50;;
50745;SDS011;36711;51.972;21.204;2024-03-23T07:04:42;74.20;;;28.80;;
50745;SDS011;36711;51.972;21.204;2024-03-23T07:07:09;46.40;;;22.80;;
50745;SDS011;36711;51.972;21.204;2024-03-23T07:09:35;33.00;;;17.40;;
50745;SDS011;36711;51.972;21.204;2024-03-23T07:12:03;46.10;;;20.60;;
50745;SDS011;36711;51.972;21.204;2024-03-23T07:14:31;64.50;;;29.30;;
50745;SDS011;36711;51.972;21.204;2024-03-23T07:16:57;34.40;;;19.40;;
50745;SDS011;36711;51.972;21.204;2024-03-23T07:19:24;30.30;;;17.10;;
50745;SDS011;36711;51.972;21.204;2024-03-23T07:21:51;78.30;;;27.90;;
50745;SDS011;36711;51.972;21.204;2024-03-23T07:24:17;61.50;;;24.30;;
50745;SDS011;36711;51.972;21.204;2024-03-23T07:26:44;51.70;;;25.20;;
50745;SDS011;36711;51.972;21.204;2024-03-23T07:29:10;33.10;;;18.20;;
50745;SDS011;36711;51.972;21.204;2024-03-23T07:31:37;30.40;;;15.80;;
50745;SDS011;36711;51.972;21.204;2024-03-23T07:34:05;57.80;;;25.30;;
50745;SDS011;36711;51.972;21.204;2024-03-23T07:36:32;67.70;;;29.30;;
50745;SDS011;36711;51.972;21.204;2024-03-23T07:38:58;46.10;;;23.10;;
50745;SDS011;36711;51.972;21.204;2024-03-23T07:41:38;39.30;;;20.80;;
50745;SDS011;36711;51.972;21.204;2024-03-23T07:44:04;34.60;;;17.80;;
50745;SDS011;36711;51.972;21.204;2024-03-23T07:46:31;32.50;;;17.20;;
50745;SDS011;36711;51.972;21.204;2024-03-23T07:48:58;28.70;;;16.00;;
50745;SDS011;36711;51.972;21.204;2024-03-23T07:51:25;26.20;;;14.10;;
50745;SDS011;36711;51.972;21.204;2024-03-23T07:53:55;24.70;;;12.90;;
50745;SDS011;36711;51.972;21.204;2024-03-23T07:56:25;26.70;;;13.20;;
50745;SDS011;36711;51.972;21.204;2024-03-23T07:58:51;28.20;;;16.70;;
50745;SDS011;36711;51.972;21.204;2024-03-23T08:01:18;30.60;;;16.70;;
50745;SDS011;36711;51.972;21.204;2024-03-23T08:03:45;27.50;;;14.30;;
50745;SDS011;36711;51.972;21.204;2024-03-23T08:06:15;28.20;;;12.90;;
50745;SDS011;36711;51.972;21.204;2024-03-23T08:08:44;24.60;;;12.70;;
50745;SDS011;36711;51.972;21.204;2024-03-23T08:11:11;26.40;;;12.50;;
50745;SDS011;36711;51.972;21.204;2024-03-23T08:13:39;23.50;;;11.90;;
50745;SDS011;36711;51.972;21.204;2024-03-23T08:16:06;22.40;;;12.20;;
50745;SDS011;36711;51.972;21.204;2024-03-23T08:18:35;24.00;;;11.80;;
50745;SDS011;36711;51.972;21.204;2024-03-23T08:21:02;22.80;;;11.90;;
50745;SDS011;36711;51.972;21.204;2024-03-23T08:23:31;22.40;;;11.80;;
50745;SDS011;36711;51.972;21.204;2024-03-23T08:26:05;22.40;;;12.30;;
50745;SDS011;36711;51.972;21.204;2024-03-23T08:28:32;23.10;;;11.60;;
50745;SDS011;36711;51.972;21.204;2024-03-23T08:31:04;23.00;;;10.80;;
50745;SDS011;36711;51.972;21.204;2024-03-23T08:33:33;21.80;;;10.30;;
50745;SDS011;36711;51.972;21.204;2024-03-23T08:36:01;20.30;;;11.10;;
50745;SDS011;36711;51.972;21.204;2024-03-23T08:38:29;20.30;;;10.70;;
50745;SDS011;36711;51.972;21.204;2024-03-23T08:40:59;22.40;;;10.70;;
50745;SDS011;36711;51.972;21.204;2024-03-23T08:43:32;19.40;;;10.30;;
50745;SDS011;36711;51.972;21.204;2024-03-23T08:46:10;19.70;;;10.30;;
50745;SDS011;36711;51.972;21.204;2024-03-23T08:48:38;19.60;;;10.30;;
50745;SDS011;36711;51.972;21.204;2024-03-23T08:51:12;19.30;;;10.10;;
50745;SDS011;36711;51.972;21.204;2024-03-23T08:53:40;20.60;;;10.80;;
50745;SDS011;36711;51.972;21.204;2024-03-23T08:56:07;18.70;;;9.70;;
50745;SDS011;36711;51.972;21.204;2024-03-23T08:58:35;18.20;;;9.50;;
50745;SDS011;36711;51.972;21.204;2024-03-23T09:01:14;17.80;;;9.40;;
50745;SDS011;36711;51.972;21.204;2024-03-23T09:03:41;18.30;;;9.10;;
50745;SDS011;36711;51.972;21.204;2024-03-23T09:06:08;15.80;;;8.80;;
50745;SDS011;36711;51.972;21.204;2024-03-23T09:08:36;16.80;;;9.00;;
50745;SDS011;36711;51.972;21.204;2024-03-23T09:11:06;15.80;;;8.60;;
50745;SDS011;36711;51.972;21.204;2024-03-23T09:13:34;17.40;;;9.10;;
50745;SDS011;36711;51.972;21.204;2024-03-23T09:16:02;16.70;;;8.40;;
50745;SDS011;36711;51.972;21.204;2024-03-23T09:18:34;17.00;;;9.50;;
50745;SDS011;36711;51.972;21.204;2024-03-23T09:21:04;16.90;;;9.30;;
50745;SDS011;36711;51.972;21.204;2024-03-23T09:23:32;16.80;;;9.10;;
50745;SDS011;36711;51.972;21.204;2024-03-23T09:26:02;18.10;;;9.10;;
50745;SDS011;36711;51.972;21.204;2024-03-23T09:28:29;18.90;;;9.90;;
50745;SDS011;36711;51.972;21.204;2024-03-23T09:31:03;18.00;;;10.00;;
50745;SDS011;36711;51.972;21.204;2024-03-23T09:33:30;23.10;;;10.80;;
50745;SDS011;36711;51.972;21.204;2024-03-23T09:35:57;20.00;;;9.80;;
50745;SDS011;36711;51.972;21.204;2024-03-23T09:38:24;17.30;;;10.20;;
50745;SDS011;36711;51.972;21.204;2024-03-23T09:40:52;21.90;;;10.70;;
50745;SDS011;36711;51.972;21.204;2024-03-23T09:43:19;18.20;;;9.50;;
50745;SDS011;36711;51.972;21.204;2024-03-23T09:45:46;17.50;;;9.70;;
50745;SDS011;36711;51.972;21.204;2024-03-23T09:48:13;17.50;;;9.70;;
50745;SDS011;36711;51.972;21.204;2024-03-23T09:50:40;16.60;;;9.30;;
50745;SDS011;36711;51.972;21.204;2024-03-23T09:53:07;19.10;;;9.00;;
50745;SDS011;36711;51.972;21.204;2024-03-23T09:55:35;14.60;;;8.20;;
50745;SDS011;36711;51.972;21.204;2024-03-23T09:58:02;15.30;;;8.20;;
50745;SDS011;36711;51.972;21.204;2024-03-23T10:00:31;16.50;;;8.60;;
50745;SDS011;36711;51.972;21.204;2024-03-23T10:02:59;15.40;;;8.10;;
50745;SDS011;36711;51.972;21.204;2024-03-23T10:05:30;13.90;;;8.00;;
50745;SDS011;36711;51.972;21.204;2024-03-23T10:10:42;12.30;;;8.00;;
50745;SDS011;36711;51.972;21.204;2024-03-23T10:13:10;13.20;;;7.70;;
50745;SDS011;36711;51.972;21.204;2024-03-23T10:15:39;14.00;;;7.70;;
50745;SDS011;36711;51.972;21.204;2024-03-23T10:18:18;12.60;;;7.50;;
50745;SDS011;36711;51.972;21.204;2024-03-23T10:20:50;13.40;;;7.90;;
50745;SDS011;36711;51.972;21.204;2024-03-23T10:23:38;14.30;;;8.20;;
50745;SDS011;36711;51.972;21.204;2024-03-23T10:26:12;14.00;;;7.50;;
50745;SDS011;36711;51.972;21.204;2024-03-23T10:28:54;15.10;;;8.10;;
50745;SDS011;36711;51.972;21.204;2024-03-23T10:31:34;13.80;;;8.60;;
50745;SDS011;36711;51.972;21.204;2024-03-23T10:34:04;13.10;;;7.30;;
50745;SDS011;36711;51.972;21.204;2024-03-23T10:36:30;13.50;;;7.70;;
50745;SDS011;36711;51.972;21.204;2024-03-23T10:38:57;11.90;;;7.00;;
50745;SDS011;36711;51.972;21.204;2024-03-23T10:41:27;12.70;;;6.70;;
50745;SDS011;36711;51.972;21.204;2024-03-23T10:43:55;12.40;;;6.90;;
50745;SDS011;36711;51.972;21.204;2024-03-23T10:46:22;10.80;;;6.60;;
50745;SDS011;36711;51.972;21.204;2024-03-23T10:48:49;13.20;;;6.50;;
50745;SDS011;36711;51.972;21.204;2024-03-23T10:51:15;12.30;;;7.70;;
50745;SDS011;36711;51.972;21.204;2024-03-23T10:53:42;12.30;;;7.70;;
50745;SDS011;36711;51.972;21.204;2024-03-23T10:56:09;12.00;;;6.70;;
50745;SDS011;36711;51.972;21.204;2024-03-23T10:58:44;12.50;;;7.10;;
50745;SDS011;36711;51.972;21.204;2024-03-23T11:01:15;13.90;;;7.10;;
50745;SDS011;36711;51.972;21.204;2024-03-23T11:03:45;13.20;;;7.00;;
50745;SDS011;36711;51.972;21.204;2024-03-23T11:06:33;12.40;;;7.20;;
50745;SDS011;36711;51.972;21.204;2024-03-23T11:09:03;10.30;;;6.70;;
50745;SDS011;36711;51.972;21.204;2024-03-23T11:11:30;11.30;;;6.60;;
50745;SDS011;36711;51.972;21.204;2024-03-23T11:14:00;10.50;;;6.30;;
50745;SDS011;36711;51.972;21.204;2024-03-23T11:16:39;11.00;;;7.00;;
50745;SDS011;36711;51.972;21.204;2024-03-23T11:22:01;13.10;;;6.10;;
50745;SDS011;36711;51.972;21.204;2024-03-23T11:24:28;10.00;;;6.00;;
50745;SDS011;36711;51.972;21.204;2024-03-23T11:26:55;8.90;;;5.70;;
50745;SDS011;36711;51.972;21.204;2024-03-23T11:29:22;8.40;;;5.70;;
50745;SDS011;36711;51.972;21.204;2024-03-23T11:31:49;9.30;;;5.90;;
50745;SDS011;36711;51.972;21.204;2024-03-23T11:34:16;8.40;;;5.10;;
50745;SDS011;36711;51.972;21.204;2024-03-23T11:36:44;9.70;;;5.20;;
50745;SDS011;36711;51.972;21.204;2024-03-23T11:41:49;8.40;;;5.60;;
50745;SDS011;36711;51.972;21.204;2024-03-23T11:44:20;8.50;;;5.70;;
50745;SDS011;36711;51.972;21.204;2024-03-23T11:46:48;11.70;;;4.90;;
50745;SDS011;36711;51.972;21.204;2024-03-23T11:49:22;9.00;;;5.60;;
50745;SDS011;36711;51.972;21.204;2024-03-23T11:51:55;15.00;;;7.10;;
50745;SDS011;36711;51.972;21.204;2024-03-23T11:54:23;10.70;;;6.30;;
50745;SDS011;36711;51.972;21.204;2024-03-23T11:57:00;13.70;;;6.40;;
50745;SDS011;36711;51.972;21.204;2024-03-23T11:59:37;9.70;;;5.60;;
50745;SDS011;36711;51.972;21.204;2024-03-23T12:02:08;9.80;;;5.50;;
50745;SDS011;36711;51.972;21.204;2024-03-23T12:04:36;11.20;;;6.20;;
50745;SDS011;36711;51.972;21.204;2024-03-23T12:07:17;9.20;;;6.00;;
50745;SDS011;36711;51.972;21.204;2024-03-23T12:10:06;8.80;;;5.70;;
50745;SDS011;36711;51.972;21.204;2024-03-23T12:12:33;10.90;;;6.10;;
50745;SDS011;36711;51.972;21.204;2024-03-23T12:15:01;10.10;;;5.90;;
50745;SDS011;36711;51.972;21.204;2024-03-23T12:17:29;11.10;;;5.90;;
50745;SDS011;36711;51.972;21.204;2024-03-23T12:19:56;11.20;;;6.50;;
50745;SDS011;36711;51.972;21.204;2024-03-23T12:22:27;9.00;;;5.50;;
50745;SDS011;36711;51.972;21.204;2024-03-23T12:24:55;8.80;;;5.70;;
50745;SDS011;36711;51.972;21.204;2024-03-23T12:27:22;10.40;;;5.70;;
50745;SDS011;36711;51.972;21.204;2024-03-23T12:29:49;10.30;;;5.90;;
50745;SDS011;36711;51.972;21.204;2024-03-23T12:32:16;8.80;;;5.70;;
50745;SDS011;36711;51.972;21.204;2024-03-23T12:34:44;10.40;;;6.30;;
50745;SDS011;36711;51.972;21.204;2024-03-23T12:37:13;9.30;;;5.40;;
50745;SDS011;36711;51.972;21.204;2024-03-23T12:39:43;8.40;;;5.60;;
50745;SDS011;36711;51.972;21.204;2024-03-23T12:42:10;7.30;;;5.00;;
50745;SDS011;36711;51.972;21.204;2024-03-23T12:44:40;9.00;;;4.90;;
50745;SDS011;36711;51.972;21.204;2024-03-23T12:47:07;11.40;;;4.80;;
50745;SDS011;36711;51.972;21.204;2024-03-23T12:49:34;9.80;;;4.40;;
50745;SDS011;36711;51.972;21.204;2024-03-23T12:52:00;7.20;;;4.80;;
50745;SDS011;36711;51.972;21.204;2024-03-23T12:54:27;7.40;;;4.20;;
50745;SDS011;36711;51.972;21.204;2024-03-23T12:56:54;9.60;;;4.10;;
50745;SDS011;36711;51.972;21.204;2024-03-23T12:59:22;6.30;;;4.20;;
50745;SDS011;36711;51.972;21.204;2024-03-23T13:01:49;10.20;;;4.00;;
50745;SDS011;36711;51.972;21.204;2024-03-23T13:04:16;5.00;;;3.70;;
50745;SDS011;36711;51.972;21.204;2024-03-23T13:06:43;5.80;;;3.70;;
50745;SDS011;36711;51.972;21.204;2024-03-23T13:09:09;5.80;;;3.80;;
50745;SDS011;36711;51.972;21.204;2024-03-23T13:11:36;5.60;;;3.80;;
50745;SDS011;36711;51.972;21.204;2024-03-23T13:14:03;5.80;;;4.00;;
50745;SDS011;36711;51.972;21.204;2024-03-23T13:16:30;9.40;;;4.00;;
50745;SDS011;36711;51.972;21.204;2024-03-23T13:18:57;6.10;;;4.20;;
50745;SDS011;36711;51.972;21.204;2024-03-23T13:21:24;6.70;;;4.10;;
50745;SDS011;36711;51.972;21.204;2024-03-23T13:23:51;8.70;;;4.20;;
50745;SDS011;36711;51.972;21.204;2024-03-23T13:26:17;7.90;;;4.10;;
50745;SDS011;36711;51.972;21.204;2024-03-23T13:28:47;5.70;;;3.70;;
50745;SDS011;36711;51.972;21.204;2024-03-23T13:31:13;6.00;;;3.80;;
50745;SDS011;36711;51.972;21.204;2024-03-23T13:33:40;11.00;;;4.90;;
50745;SDS011;36711;51.972;21.204;2024-03-23T13:36:10;7.40;;;4.90;;
50745;SDS011;36711;51.972;21.204;2024-03-23T13:38:37;11.40;;;5.70;;
50745;SDS011;36711;51.972;21.204;2024-03-23T13:41:03;12.90;;;6.10;;
50745;SDS011;36711;51.972;21.204;2024-03-23T13:43:32;21.40;;;7.00;;
50745;SDS011;36711;51.972;21.204;2024-03-23T13:45:59;16.20;;;6.70;;
50745;SDS011;36711;51.972;21.204;2024-03-23T13:48:26;13.50;;;5.60;;
50745;SDS011;36711;51.972;21.204;2024-03-23T13:53:29;7.10;;;4.80;;
50745;SDS011;36711;51.972;21.204;2024-03-23T13:55:56;6.40;;;4.80;;
50745;SDS011;36711;51.972;21.204;2024-03-23T13:58:22;9.40;;;5.30;;
50745;SDS011;36711;51.972;21.204;2024-03-23T14:00:52;6.20;;;3.60;;
50745;SDS011;36711;51.972;21.204;2024-03-23T14:03:20;11.30;;;4.90;;
50745;SDS011;36711;51.972;21.204;2024-03-23T14:05:46;10.80;;;5.40;;
50745;SDS011;36711;51.972;21.204;2024-03-23T14:08:13;8.60;;;5.00;;
50745;SDS011;36711;51.972;21.204;2024-03-23T14:10:40;7.80;;;5.10;;
50745;SDS011;36711;51.972;21.204;2024-03-23T14:13:07;7.90;;;5.30;;
50745;SDS011;36711;51.972;21.204;2024-03-23T14:15:34;7.50;;;5.10;;
50745;SDS011;36711;51.972;21.204;2024-03-23T14:18:03;8.60;;;5.20;;
50745;SDS011;36711;51.972;21.204;2024-03-23T14:20:33;10.00;;;4.90;;
50745;SDS011;36711;51.972;21.204;2024-03-23T14:23:02;6.80;;;4.80;;
50745;SDS011;36711;51.972;21.204;2024-03-23T14:25:29;9.60;;;4.90;;
50745;SDS011;36711;51.972;21.204;2024-03-23T14:27:56;9.50;;;5.00;;
50745;SDS011;36711;51.972;21.204;2024-03-23T14:30:24;9.00;;;5.70;;
50745;SDS011;36711;51.972;21.204;2024-03-23T14:32:51;8.60;;;5.70;;
50745;SDS011;36711;51.972;21.204;2024-03-23T14:35:17;8.10;;;5.00;;
50745;SDS011;36711;51.972;21.204;2024-03-23T14:37:44;8.30;;;5.10;;
50745;SDS011;36711;51.972;21.204;2024-03-23T14:40:13;7.50;;;4.90;;
50745;SDS011;36711;51.972;21.204;2024-03-23T14:42:40;10.20;;;5.10;;
50745;SDS011;36711;51.972;21.204;2024-03-23T14:45:07;8.20;;;5.20;;
50745;SDS011;36711;51.972;21.204;2024-03-23T14:47:34;9.40;;;5.70;;
50745;SDS011;36711;51.972;21.204;2024-03-23T14:50:01;8.30;;;5.80;;
50745;SDS011;36711;51.972;21.204;2024-03-23T14:52:29;11.30;;;5.90;;
50745;SDS011;36711;51.972;21.204;2024-03-23T14:54:56;9.00;;;6.20;;
50745;SDS011;36711;51.972;21.204;2024-03-23T14:57:23;9.90;;;6.70;;
50745;SDS011;36711;51.972;21.204;2024-03-23T14:59:49;8.70;;;6.40;;
50745;SDS011;36711;51.972;21.204;2024-03-23T15:02:16;13.40;;;7.40;;
50745;SDS011;36711;51.972;21.204;2024-03-23T15:04:43;11.70;;;7.20;;
50745;SDS011;36711;51.972;21.204;2024-03-23T15:07:09;11.40;;;6.70;;
50745;SDS011;36711;51.972;21.204;2024-03-23T15:09:39;13.20;;;8.00;;
50745;SDS011;36711;51.972;21.204;2024-03-23T15:12:06;13.50;;;7.80;;
50745;SDS011;36711;51.972;21.204;2024-03-23T15:14:33;12.30;;;7.50;;
50745;SDS011;36711;51.972;21.204;2024-03-23T15:17:00;12.30;;;8.20;;
50745;SDS011;36711;51.972;21.204;2024-03-23T15:19:30;12.90;;;8.20;;
50745;SDS011;36711;51.972;21.204;2024-03-23T15:21:59;15.50;;;8.60;;
50745;SDS011;36711;51.972;21.204;2024-03-23T15:24:26;14.80;;;9.00;;
50745;SDS011;36711;51.972;21.204;2024-03-23T15:26:53;13.30;;;8.70;;
50745;SDS011;36711;51.972;21.204;2024-03-23T15:29:23;12.70;;;8.80;;
50745;SDS011;36711;51.972;21.204;2024-03-23T15:31:49;13.10;;;9.10;;
50745;SDS011;36711;51.972;21.204;2024-03-23T15:34:19;16.60;;;9.10;;
50745;SDS011;36711;51.972;21.204;2024-03-23T15:36:51;16.00;;;9.80;;
50745;SDS011;36711;51.972;21.204;2024-03-23T15:39:17;16.70;;;9.90;;
50745;SDS011;36711;51.972;21.204;2024-03-23T15:41:45;16.10;;;9.80;;
50745;SDS011;36711;51.972;21.204;2024-03-23T15:44:12;16.50;;;8.70;;
50745;SDS011;36711;51.972;21.204;2024-03-23T15:46:39;9.00;;;4.80;;
50745;SDS011;36711;51.972;21.204;2024-03-23T15:49:06;5.20;;;3.00;;
50745;SDS011;36711;51.972;21.204;2024-03-23T15:51:33;4.00;;;3.30;;
50745;SDS011;36711;51.972;21.204;2024-03-23T15:54:03;3.90;;;2.70;;
50745;SDS011;36711;51.972;21.204;2024-03-23T15:56:33;6.50;;;4.40;;
50745;SDS011;36711;51.972;21.204;2024-03-23T15:59:00;6.90;;;4.90;;
50745;SDS011;36711;51.972;21.204;2024-03-23T16:01:32;7.50;;;4.30;;
50745;SDS011;36711;51.972;21.204;2024-03-23T16:04:04;7.60;;;3.40;;
50745;SDS011;36711;51.972;21.204;2024-03-23T16:06:31;8.20;;;3.40;;
50745;SDS011;36711;51.972;21.204;2024-03-23T16:08:58;5.50;;;3.80;;
50745;SDS011;36711;51.972;21.204;2024-03-23T16:11:25;4.20;;;3.00;;
50745;SDS011;36711;51.972;21.204;2024-03-23T16:13:51;7.30;;;3.70;;
50745;SDS011;36711;51.972;21.204;2024-03-23T16:16:18;6.30;;;3.90;;
50745;SDS011;36711;51.972;21.204;2024-03-23T16:18:48;6.60;;;4.60;;
50745;SDS011;36711;51.972;21.204;2024-03-23T16:21:18;7.40;;;4.50;;
50745;SDS011;36711;51.972;21.204;2024-03-23T16:23:45;6.80;;;3.90;;
50745;SDS011;36711;51.972;21.204;2024-03-23T16:26:12;5.60;;;3.90;;
50745;SDS011;36711;51.972;21.204;2024-03-23T16:28:43;7.50;;;4.40;;
50745;SDS011;36711;51.972;21.204;2024-03-23T16:31:10;9.30;;;4.40;;
50745;SDS011;36711;51.972;21.204;2024-03-23T16:33:37;7.00;;;4.50;;
50745;SDS011;36711;51.972;21.204;2024-03-23T16:36:08;6.90;;;4.10;;
50745;SDS011;36711;51.972;21.204;2024-03-23T16:38:36;9.60;;;5.30;;
50745;SDS011;36711;51.972;21.204;2024-03-23T16:41:04;8.70;;;4.20;;
50745;SDS011;36711;51.972;21.204;2024-03-23T16:43:33;7.10;;;4.30;;
50745;SDS011;36711;51.972;21.204;2024-03-23T16:46:01;5.60;;;4.00;;
50745;SDS011;36711;51.972;21.204;2024-03-23T16:48:32;6.90;;;4.00;;
50745;SDS011;36711;51.972;21.204;2024-03-23T16:51:00;6.60;;;4.70;;
50745;SDS011;36711;51.972;21.204;2024-03-23T16:53:30;6.10;;;4.80;;
50745;SDS011;36711;51.972;21.204;2024-03-23T16:56:01;8.20;;;4.70;;
50745;SDS011;36711;51.972;21.204;2024-03-23T16:58:33;6.70;;;4.80;;
50745;SDS011;36711;51.972;21.204;2024-03-23T17:01:04;7.10;;;5.10;;
50745;SDS011;36711;51.972;21.204;2024-03-23T17:03:49;8.40;;;5.50;;
50745;SDS011;36711;51.972;21.204;2024-03-23T17:06:19;7.20;;;5.40;;
50745;SDS011;36711;51.972;21.204;2024-03-23T17:08:49;8.90;;;6.30;;
50745;SDS011;36711;51.972;21.204;2024-03-23T17:11:16;9.50;;;6.30;;
50745;SDS011;36711;51.972;21.204;2024-03-23T17:13:45;10.20;;;6.00;;
50745;SDS011;36711;51.972;21.204;2024-03-23T17:16:13;9.70;;;6.30;;
50745;SDS011;36711;51.972;21.204;2024-03-23T17:18:41;8.20;;;6.30;;
50745;SDS011;36711;51.972;21.204;2024-03-23T17:21:08;11.50;;;6.50;;
50745;SDS011;36711;51.972;21.204;2024-03-23T17:23:35;8.10;;;6.00;;
50745;SDS011;36711;51.972;21.204;2024-03-23T17:26:01;21.90;;;14.90;;
50745;SDS011;36711;51.972;21.204;2024-03-23T17:28:28;20.00;;;13.20;;
50745;SDS011;36711;51.972;21.204;2024-03-23T17:30:55;12.00;;;8.40;;
50745;SDS011;36711;51.972;21.204;2024-03-23T17:33:22;10.80;;;6.80;;
50745;SDS011;36711;51.972;21.204;2024-03-23T17:35:53;9.70;;;6.50;;
50745;SDS011;36711;51.972;21.204;2024-03-23T17:38:22;10.80;;;7.90;;
50745;SDS011;36711;51.972;21.204;2024-03-23T17:40:49;17.50;;;12.40;;
50745;SDS011;36711;51.972;21.204;2024-03-23T17:43:22;12.90;;;8.20;;
50745;SDS011;36711;51.972;21.204;2024-03-23T17:45:49;61.90;;;25.90;;
50745;SDS011;36711;51.972;21.204;2024-03-23T17:48:19;34.20;;;25.00;;
50745;SDS011;36711;51.972;21.204;2024-03-23T17:50:48;14.20;;;11.40;;
50745;SDS011;36711;51.972;21.204;2024-03-23T17:53:15;14.00;;;9.20;;
50745;SDS011;36711;51.972;21.204;2024-03-23T17:55:41;41.10;;;23.60;;
50745;SDS011;36711;51.972;21.204;2024-03-23T17:58:08;38.30;;;20.80;;
50745;SDS011;36711;51.972;21.204;2024-03-23T18:00:35;12.20;;;8.60;;
50745;SDS011;36711;51.972;21.204;2024-03-23T18:03:02;13.60;;;8.80;;
50745;SDS011;36711;51.972;21.204;2024-03-23T18:05:30;21.60;;;12.00;;
50745;SDS011;36711;51.972;21.204;2024-03-23T18:07:56;34.10;;;16.90;;
50745;SDS011;36711;51.972;21.204;2024-03-23T18:10:24;15.80;;;10.40;;
50745;SDS011;36711;51.972;21.204;2024-03-23T18:12:51;11.20;;;7.50;;
50745;SDS011;36711;51.972;21.204;2024-03-23T18:15:17;11.50;;;7.30;;
50745;SDS011;36711;51.972;21.204;2024-03-23T18:17:48;10.40;;;7.20;;
50745;SDS011;36711;51.972;21.204;2024-03-23T18:20:18;10.10;;;7.40;;
50745;SDS011;36711;51.972;21.204;2024-03-23T18:22:45;12.00;;;6.90;;
50745;SDS011;36711;51.972;21.204;2024-03-23T18:25:12;8.20;;;6.40;;
50745;SDS011;36711;51.972;21.204;2024-03-23T18:27:38;8.70;;;6.50;;
50745;SDS011;36711;51.972;21.204;2024-03-23T18:30:05;8.10;;;5.20;;
50745;SDS011;36711;51.972;21.204;2024-03-23T18:32:32;12.50;;;8.00;;
50745;SDS011;36711;51.972;21.204;2024-03-23T18:34:59;13.20;;;7.70;;
50745;SDS011;36711;51.972;21.204;2024-03-23T18:37:25;17.40;;;9.00;;
50745;SDS011;36711;51.972;21.204;2024-03-23T18:39:52;14.00;;;6.40;;
50745;SDS011;36711;51.972;21.204;2024-03-23T18:42:19;12.00;;;7.60;;
50745;SDS011;36711;51.972;21.204;2024-03-23T18:44:46;12.80;;;7.30;;
50745;SDS011;36711;51.972;21.204;2024-03-23T18:47:13;12.20;;;7.90;;
50745;SDS011;36711;51.972;21.204;2024-03-23T18:49:39;13.90;;;7.70;;
50745;SDS011;36711;51.972;21.204;2024-03-23T18:52:06;11.10;;;7.40;;
50745;SDS011;36711;51.972;21.204;2024-03-23T18:54:33;9.00;;;6.50;;
50745;SDS011;36711;51.972;21.204;2024-03-23T18:56:59;6.20;;;4.60;;
50745;SDS011;36711;51.972;21.204;2024-03-23T18:59:26;6.50;;;4.80;;
50745;SDS011;36711;51.972;21.204;2024-03-23T19:01:53;8.80;;;3.60;;
50745;SDS011;36711;51.972;21.204;2024-03-23T19:04:19;4.50;;;3.30;;
50745;SDS011;36711;51.972;21.204;2024-03-23T19:06:46;5.70;;;4.00;;
50745;SDS011;36711;51.972;21.204;2024-03-23T19:09:13;4.90;;;3.20;;
50745;SDS011;36711;51.972;21.204;2024-03-23T19:11:40;5.20;;;4.00;;
50745;SDS011;36711;51.972;21.204;2024-03-23T19:14:07;5.40;;;4.10;;
50745;SDS011;36711;51.972;21.204;2024-03-23T19:16:34;5.20;;;4.00;;
50745;SDS011;36711;51.972;21.204;2024-03-23T19:19:00;5.70;;;3.40;;
50745;SDS011;36711;51.972;21.204;2024-03-23T19:21:27;4.60;;;3.30;;
50745;SDS011;36711;51.972;21.204;2024-03-23T19:23:54;4.60;;;3.00;;
50745;SDS011;36711;51.972;21.204;2024-03-23T19:26:21;5.10;;;3.80;;
50745;SDS011;36711;51.972;21.204;2024-03-23T19:28:47;4.90;;;3.60;;
50745;SDS011;36711;51.972;21.204;2024-03-23T19:31:14;4.10;;;2.60;;
50745;SDS011;36711;51.972;21.204;2024-03-23T19:33:42;3.80;;;3.40;;
50745;SDS011;36711;51.972;21.204;2024-03-23T19:36:11;4.70;;;2.60;;
50745;SDS011;36711;51.972;21.204;2024-03-23T19:38:38;2.60;;;2.30;;
50745;SDS011;36711;51.972;21.204;2024-03-23T19:41:05;2.60;;;2.40;;
50745;SDS011;36711;51.972;21.204;2024-03-23T19:43:31;4.40;;;3.00;;
50745;SDS011;36711;51.972;21.204;2024-03-23T19:46:04;2.90;;;2.10;;
50745;SDS011;36711;51.972;21.204;2024-03-23T19:48:30;2.80;;;2.40;;
50745;SDS011;36711;51.972;21.204;2024-03-23T19:50:57;4.60;;;2.40;;
50745;SDS011;36711;51.972;21.204;2024-03-23T19:53:27;2.40;;;2.00;;
50745;SDS011;36711;51.972;21.204;2024-03-23T19:55:54;2.80;;;1.90;;
50745;SDS011;36711;51.972;21.204;2024-03-23T19:58:21;2.20;;;2.00;;
50745;SDS011;36711;51.972;21.204;2024-03-23T20:00:48;2.60;;;1.40;;
50745;SDS011;36711;51.972;21.204;2024-03-23T20:03:15;2.30;;;1.40;;
50745;SDS011;36711;51.972;21.204;2024-03-23T20:05:42;2.30;;;1.70;;
50745;SDS011;36711;51.972;21.204;2024-03-23T20:08:09;3.60;;;2.00;;
50745;SDS011;36711;51.972;21.204;2024-03-23T20:10:35;1.80;;;1.60;;
50745;SDS011;36711;51.972;21.204;2024-03-23T20:13:02;1.40;;;1.30;;
50745;SDS011;36711;51.972;21.204;2024-03-23T20:15:30;1.70;;;1.60;;
50745;SDS011;36711;51.972;21.204;2024-03-23T20:17:56;2.90;;;1.90;;
50745;SDS011;36711;51.972;21.204;2024-03-23T20:20:23;2.70;;;2.10;;
50745;SDS011;36711;51.972;21.204;2024-03-23T20:22:50;2.40;;;2.20;;
50745;SDS011;36711;51.972;21.204;2024-03-23T20:25:17;2.50;;;2.10;;
50745;SDS011;36711;51.972;21.204;2024-03-23T20:27:44;2.60;;;2.10;;
50745;SDS011;36711;51.972;21.204;2024-03-23T20:30:14;2.80;;;2.00;;
50745;SDS011;36711;51.972;21.204;2024-03-23T20:32:41;3.30;;;2.00;;
50745;SDS011;36711;51.972;21.204;2024-03-23T20:35:07;3.20;;;2.20;;
50745;SDS011;36711;51.972;21.204;2024-03-23T20:37:34;2.80;;;1.90;;
50745;SDS011;36711;51.972;21.204;2024-03-23T20:40:01;2.70;;;2.00;;
50745;SDS011;36711;51.972;21.204;2024-03-23T20:42:29;2.50;;;2.20;;
50745;SDS011;36711;51.972;21.204;2024-03-23T20:44:55;2.40;;;2.00;;
50745;SDS011;36711;51.972;21.204;2024-03-23T20:47:24;2.60;;;1.70;;
50745;SDS011;36711;51.972;21.204;2024-03-23T20:49:50;3.60;;;2.20;;
50745;SDS011;36711;51.972;21.204;2024-03-23T20:52:17;2.10;;;1.90;;
50745;SDS011;36711;51.972;21.204;2024-03-23T20:54:44;2.10;;;1.80;;
50745;SDS011;36711;51.972;21.204;2024-03-23T20:57:12;3.40;;;2.00;;
50745;SDS011;36711;51.972;21.204;2024-03-23T20:59:41;3.70;;;2.00;;
50745;SDS011;36711;51.972;21.204;2024-03-23T21:02:08;3.20;;;2.20;;
50745;SDS011;36711;51.972;21.204;2024-03-23T21:04:34;8.50;;;7.70;;
50745;SDS011;36711;51.972;21.204;2024-03-23T21:07:02;9.50;;;7.40;;
50745;SDS011;36711;51.972;21.204;2024-03-23T21:09:28;4.20;;;3.80;;
50745;SDS011;36711;51.972;21.204;2024-03-23T21:11:57;14.70;;;10.60;;
50745;SDS011;36711;51.972;21.204;2024-03-23T21:14:24;5.70;;;5.20;;
50745;SDS011;36711;51.972;21.204;2024-03-23T21:16:51;13.30;;;11.20;;
50745;SDS011;36711;51.972;21.204;2024-03-23T21:19:17;6.40;;;5.40;;
50745;SDS011;36711;51.972;21.204;2024-03-23T21:21:44;4.00;;;3.30;;
50745;SDS011;36711;51.972;21.204;2024-03-23T21:24:11;6.00;;;3.30;;
50745;SDS011;36711;51.972;21.204;2024-03-23T21:26:38;5.20;;;3.30;;
50745;SDS011;36711;51.972;21.204;2024-03-23T21:29:04;4.20;;;3.00;;
50745;SDS011;36711;51.972;21.204;2024-03-23T21:31:31;3.70;;;3.20;;
50745;SDS011;36711;51.972;21.204;2024-03-23T21:33:58;4.40;;;3.30;;
50745;SDS011;36711;51.972;21.204;2024-03-23T21:36:25;5.00;;;2.70;;
50745;SDS011;36711;51.972;21.204;2024-03-23T21:38:52;4.10;;;2.80;;
50745;SDS011;36711;51.972;21.204;2024-03-23T21:41:19;4.40;;;3.10;;
50745;SDS011;36711;51.972;21.204;2024-03-23T21:43:45;5.50;;;3.10;;